Calumet — WDE3568 — position and weather

sailwx.info

Track history (hours):
 
Tides and Currents Weather Stations Pressure Air Temp Water Temp Dewpoint Dewpoint Depression Visibility Wind Speed Wind Dir Waves Ship Positions

Calumet

More information available from US FCC via Universal Licensing System and Coast Guard Vessel Documentation Center.

Last reported at 2014-Jul-29 15:00 UTC. Time now 2014-Jul-30 07:11 UTC.
Position N 41°30' W 082°18'.

Length 192 m; draft 6.3 m.

Type: Cargo ship. MMSI: 367132630.

Wind from 270 at 13 knots

Waves 0.5 meters (2 feet), 2 second period

Barometer 1019.2 mb
Air temperature 18.3 ° C
Visibility: greater than 10.8 NM

Date/timePositionNaut miles runAvg speedWind from/ knotsBaromVisibWave heightAir tempDewpointWater temp
2014-Jul-29 15:00N 41°30' W 082°18'12 0.6 270 / 131019.210.8 0.518.3
2014-Jul-28 20:00N 41°42' W 082°18'   340 / 171015.9 1.018.8
2014-Jul-25 19:00N 44°24' W 082°42'56 9.4 200 / 181032.810.8 0.518.3
2014-Jul-25 13:00N 45°12' W 083°24'0 0.0 210 / 101019.2 16.1
2014-Jul-25 11:00N 45°12' W 083°24'6 0.7 200 / 51018.9 14.9
2014-Jul-25 01:33N 45°18' W 083°25'36 2.6
2014-Jul-24 11:31N 45°38' W 084°08'1212.2
2014-Jul-24 10:33N 45°42' W 084°24'1212.3
2014-Jul-24 09:33N 45°47' W 084°40'1212.3
2014-Jul-24 08:33N 45°50' W 084°57'1212.4
2014-Jul-24 07:33N 45°52' W 085°14'1212.4
2014-Jul-24 06:33N 45°53' W 085°32'1212.2
2014-Jul-24 05:33N 45°48' W 085°48'1212.5
2014-Jul-24 04:33N 45°41' W 086°03'1312.6
2014-Jul-24 03:31N 45°36' W 086°20'7 0.3
2014-Jul-23 00:33N 45°39' W 086°11'1211.9
2014-Jul-22 23:33N 45°45' W 085°56'1211.6
2014-Jul-22 22:33N 45°50' W 085°42'1111.3
2014-Jul-22 21:33N 45°53' W 085°26'1111.3
2014-Jul-22 20:33N 45°52' W 085°10'1111.4
2014-Jul-22 19:33N 45°50' W 084°54'1111.3
2014-Jul-22 18:33N 45°47' W 084°39'1111.5
2014-Jul-22 17:33N 45°42' W 084°24'1110.9
2014-Jul-22 16:33N 45°40' W 084°09'  
Track history (hours):
 
Tides and Currents Weather Stations Pressure Air Temp Water Temp Dewpoint Dewpoint Depression Visibility Wind Speed Wind Dir Waves Ship Positions

Calumet

More information available from US FCC via Universal Licensing System and Coast Guard Vessel Documentation Center.

Last reported at 2014-Jul-29 15:00 UTC. Time now 2014-Jul-30 07:11 UTC.
Position N 41°30' W 082°18'.

Length 192 m; draft 6.3 m.

Type: Cargo ship. MMSI: 367132630.

Wind from 270 at 13 knots

Waves 0.5 meters (2 feet), 2 second period

Barometer 1019.2 mb
Air temperature 18.3 ° C
Visibility: greater than 10.8 NM

Date/timePositionNaut miles runAvg speedWind from/ knotsBaromVisibWave heightAir tempDewpointWater temp
2014-Jul-29 15:00N 41°30' W 082°18'12 0.6 270 / 131019.210.8 0.518.3
2014-Jul-28 20:00N 41°42' W 082°18'   340 / 171015.9 1.018.8
2014-Jul-25 19:00N 44°24' W 082°42'56 9.4 200 / 181032.810.8 0.518.3
2014-Jul-25 13:00N 45°12' W 083°24'0 0.0 210 / 101019.2 16.1
2014-Jul-25 11:00N 45°12' W 083°24'6 0.7 200 / 51018.9 14.9
2014-Jul-25 01:33N 45°18' W 083°25'36 2.6
2014-Jul-24 11:31N 45°38' W 084°08'1212.2
2014-Jul-24 10:33N 45°42' W 084°24'1212.3
2014-Jul-24 09:33N 45°47' W 084°40'1212.3
2014-Jul-24 08:33N 45°50' W 084°57'1212.4
2014-Jul-24 07:33N 45°52' W 085°14'1212.4
2014-Jul-24 06:33N 45°53' W 085°32'1212.2
2014-Jul-24 05:33N 45°48' W 085°48'1212.5
2014-Jul-24 04:33N 45°41' W 086°03'1312.6
2014-Jul-24 03:31N 45°36' W 086°20'7 0.3
2014-Jul-23 00:33N 45°39' W 086°11'1211.9
2014-Jul-22 23:33N 45°45' W 085°56'1211.6
2014-Jul-22 22:33N 45°50' W 085°42'1111.3
2014-Jul-22 21:33N 45°53' W 085°26'1111.3
2014-Jul-22 20:33N 45°52' W 085°10'1111.4
2014-Jul-22 19:33N 45°50' W 084°54'1111.3
2014-Jul-22 18:33N 45°47' W 084°39'1111.5
2014-Jul-22 17:33N 45°42' W 084°24'1110.9
2014-Jul-22 16:33N 45°40' W 084°09'  

Dump ship's entire track history